createdAt,value
2017-12-28T00:00:12.269Z,1.2
2017-12-28T00:15:02.828Z,1.2
2017-12-28T00:30:29.335Z,1.3
2017-12-28T00:45:02.718Z,1.4
2017-12-28T01:00:03.373Z,1.5
2017-12-28T01:15:02.706Z,1.4
2017-12-28T01:45:09.790Z,1.5
2017-12-28T02:00:03.008Z,1.4
2017-12-28T02:15:08.015Z,1.5
2017-12-28T02:30:02.352Z,1.6
2017-12-28T03:00:03.134Z,1.6
2017-12-28T03:30:03.197Z,1.7
2017-12-28T03:45:07.816Z,1.7
2017-12-28T04:00:04.419Z,1.7
2017-12-28T04:30:02.968Z,1.7
2017-12-28T04:45:02.542Z,1.8
2017-12-28T05:00:03.034Z,1.7
2017-12-28T05:15:20.903Z,1.6
2017-12-28T05:30:27.233Z,1.6
2017-12-28T05:45:03.513Z,1.6
2017-12-28T06:00:02.826Z,1.5
2017-12-28T06:15:03.224Z,1.4
2017-12-28T06:30:02.911Z,1.4
2017-12-28T06:45:03.530Z,1.5
2017-12-28T07:00:03.505Z,1.4
2017-12-28T07:15:02.949Z,1.4
2017-12-28T07:30:02.897Z,1.4
2017-12-28T07:45:24.965Z,1.5
2017-12-28T08:00:41.349Z,1.5
2017-12-28T08:15:02.712Z,1.6
2017-12-28T08:30:31.007Z,1.8
2017-12-28T08:45:02.563Z,1.8
2017-12-28T09:00:02.808Z,2
2017-12-28T09:30:02.708Z,2.4
2017-12-28T09:45:03.357Z,2.4
2017-12-28T10:00:02.885Z,2.4
2017-12-28T10:15:48.856Z,2.5
2017-12-28T10:30:02.976Z,2.5
2017-12-28T10:45:03.315Z,2.4
2017-12-28T11:00:02.736Z,2.5
2017-12-28T11:15:03.082Z,2.4
2017-12-28T11:30:14.531Z,2.2
2017-12-28T11:45:02.845Z,2.1
2017-12-28T12:00:03.152Z,1.9
2017-12-28T12:15:02.505Z,1.9
2017-12-28T12:30:02.869Z,1.8
2017-12-28T12:45:12.600Z,1.5
2017-12-28T13:15:02.468Z,1.1
2017-12-28T13:30:02.910Z,1.1
2017-12-28T13:45:03.222Z,1.1
2017-12-28T14:00:55.089Z,1.1
2017-12-28T14:15:02.681Z,0.9
2017-12-28T14:30:03.020Z,1.1
2017-12-28T14:45:02.750Z,1.2
2017-12-28T15:00:03.079Z,1.2
2017-12-28T15:15:05.378Z,1.2
2017-12-28T15:30:02.787Z,1.2
2017-12-28T15:45:20.034Z,1.3
2017-12-28T16:00:02.261Z,1.3
2017-12-28T16:15:47.187Z,1.2
2017-12-28T16:30:02.585Z,1.3
2017-12-28T17:00:02.385Z,0.9
2017-12-28T17:15:02.636Z,0.8
2017-12-28T17:30:02.950Z,0.8
2017-12-28T17:45:25.678Z,0.9
2017-12-28T18:01:10.212Z,0.9
2017-12-28T18:15:02.901Z,1
2017-12-28T18:30:02.385Z,1.1
2017-12-28T18:45:02.689Z,1.1
2017-12-28T19:00:02.971Z,0.9
2017-12-28T19:15:24.368Z,0.9
2017-12-28T19:30:05.028Z,0.8
2017-12-28T19:45:03.019Z,0.9
2017-12-28T20:01:35.006Z,0.8
2017-12-28T20:15:12.141Z,0.8
2017-12-28T20:30:19.868Z,0.7
2017-12-28T20:45:03.452Z,0.7
2017-12-28T21:00:02.889Z,0.7
2017-12-28T21:15:08.285Z,0.7
2017-12-28T21:30:02.674Z,0.6
2017-12-28T21:45:03.273Z,0.7
2017-12-28T22:00:02.562Z,0.7
2017-12-28T22:15:02.930Z,0.7
2017-12-28T22:30:02.258Z,0.6
2017-12-28T22:45:02.627Z,0.4
2017-12-28T23:00:24.806Z,0.4
2017-12-28T23:15:05.379Z,0.4
2017-12-28T23:30:03.083Z,0.4
2017-12-28T23:45:02.470Z,0.3
